Time;durP1;ratioP1;P1;durP2;ratioP2;P2;SDS_P1;SDS_P2;PMS_P1;PMS_P2;Temp;Humidity;BMP_temperature;BMP_pressure;BME280_temperature;BME280_humidity;BME280_pressure;Samples;Min_cycle;Max_cycle;Signal;HPM_P1;HPM_P2
2023/07/22 00:00:31;;;;;;;14.47;13.17;;;;;;;;;;5039708;28;20259;-77
2023/07/22 00:02:59;;;;;;;14.00;12.70;;;;;;;;;;5039302;28;20247;-76
2023/07/22 00:05:27;;;;;;;14.20;12.90;;;;;;;;;;5019754;28;20240;-77
2023/07/22 00:07:52;;;;;;;15.97;14.30;;;;;;;;;;5016028;28;20217;-78
2023/07/22 00:10:18;;;;;;;15.23;13.93;;;;;;;;;;5026289;28;20230;-76
2023/07/22 00:12:44;;;;;;;16.67;15.07;;;;;;;;;;5012024;28;20226;-75
2023/07/22 00:15:12;;;;;;;18.07;16.10;;;;;;;;;;5031195;28;20243;-77
2023/07/22 00:17:41;;;;;;;17.77;16.07;;;;;;;;;;5018099;28;20220;-79
2023/07/22 00:20:10;;;;;;;21.40;16.73;;;;;;;;;;5009299;28;20231;-76
2023/07/22 00:22:42;;;;;;;17.30;15.57;;;;;;;;;;5006745;28;20215;-76
2023/07/22 00:25:10;;;;;;;19.37;17.47;;;;;;;;;;5028478;28;20306;-76
2023/07/22 00:27:39;;;;;;;18.87;16.87;;;;;;;;;;5027986;28;20223;-77
2023/07/22 00:30:08;;;;;;;18.63;16.73;;;;;;;;;;5019059;28;20774;-76
2023/07/22 00:32:37;;;;;;;19.40;17.60;;;;;;;;;;5041069;28;20273;-76
2023/07/22 00:35:06;;;;;;;18.77;17.03;;;;;;;;;;5030675;28;20216;-78
2023/07/22 00:37:32;;;;;;;19.60;17.67;;;;;;;;;;5019869;28;20279;-77
2023/07/22 00:39:58;;;;;;;18.90;17.10;;;;;;;;;;5009122;28;20629;-78
2023/07/22 00:42:24;;;;;;;20.70;18.57;;;;;;;;;;5019852;28;20232;-77
2023/07/22 00:44:50;;;;;;;21.20;19.00;;;;;;;;;;4996868;28;20244;-77
2023/07/22 00:47:15;;;;;;;22.03;19.73;;;;;;;;;;5027212;28;20227;-76
2023/07/22 00:49:43;;;;;;;25.20;20.57;;;;;;;;;;5027708;28;20291;-77
2023/07/22 00:52:11;;;;;;;22.80;20.50;;;;;;;;;;5053208;28;20303;-77
2023/07/22 00:54:37;;;;;;;22.80;20.37;;;;;;;;;;5044758;28;20223;-77
2023/07/22 00:57:02;;;;;;;23.30;21.00;;;;;;;;;;5047999;28;20226;-76
2023/07/22 00:59:28;;;;;;;23.10;20.70;;;;;;;;;;5042542;28;20785;-76
2023/07/22 01:01:56;;;;;;;24.50;21.90;;;;;;;;;;5046839;28;20861;-77
2023/07/22 01:04:22;;;;;;;24.30;21.80;;;;;;;;;;5027962;28;20284;-77
2023/07/22 01:06:50;;;;;;;24.03;21.70;;;;;;;;;;4994126;28;20221;-76
2023/07/22 01:09:16;;;;;;;24.37;21.97;;;;;;;;;;5009356;28;20231;-78
2023/07/22 01:11:43;;;;;;;25.60;22.90;;;;;;;;;;5000047;28;20220;-78
2023/07/22 01:14:09;;;;;;;25.57;22.90;;;;;;;;;;4975693;28;20234;-78
2023/07/22 01:16:35;;;;;;;29.70;22.77;;;;;;;;;;5020317;28;20280;-77
2023/07/22 01:19:00;;;;;;;24.40;21.80;;;;;;;;;;4994945;28;20235;-77
2023/07/22 01:21:26;;;;;;;25.17;22.60;;;;;;;;;;5013383;28;20225;-76
2023/07/22 01:23:51;;;;;;;26.27;21.97;;;;;;;;;;5039098;28;20219;-77
2023/07/22 01:26:19;;;;;;;24.80;22.17;;;;;;;;;;5031408;28;20215;-76
2023/07/22 01:28:45;;;;;;;26.10;22.87;;;;;;;;;;5028681;28;20220;-77
2023/07/22 01:31:10;;;;;;;27.67;23.17;;;;;;;;;;5019634;28;20226;-77
2023/07/22 01:33:37;;;;;;;25.33;22.73;;;;;;;;;;4967937;28;20601;-77
2023/07/22 01:36:05;;;;;;;25.93;23.13;;;;;;;;;;5009419;28;20661;-77
2023/07/22 01:38:31;;;;;;;29.07;22.70;;;;;;;;;;5010026;28;20216;-77
2023/07/22 01:40:57;;;;;;;24.37;21.77;;;;;;;;;;4989721;28;20224;-77
2023/07/22 01:43:25;;;;;;;29.10;23.10;;;;;;;;;;5012729;28;20218;-78
2023/07/22 01:45:56;;;;;;;25.60;22.43;;;;;;;;;;5038626;28;20326;-76
2023/07/22 01:48:23;;;;;;;28.53;23.50;;;;;;;;;;5028322;28;20220;-79
2023/07/22 01:50:51;;;;;;;25.77;22.83;;;;;;;;;;5040722;28;20238;-77
2023/07/22 01:53:17;;;;;;;26.67;22.03;;;;;;;;;;5024297;28;20208;-77
2023/07/22 01:55:47;;;;;;;26.43;23.53;;;;;;;;;;5023419;28;20208;-78
2023/07/22 01:58:15;;;;;;;26.70;22.47;;;;;;;;;;5042804;28;20818;-77
2023/07/22 02:00:43;;;;;;;26.13;22.90;;;;;;;;;;5031625;28;20219;-78
2023/07/22 02:03:09;;;;;;;28.17;23.63;;;;;;;;;;5028833;28;20230;-77
2023/07/22 02:05:36;;;;;;;24.73;22.07;;;;;;;;;;5032375;28;20224;-78
2023/07/22 02:08:02;;;;;;;25.17;22.27;;;;;;;;;;5024148;28;20247;-77
2023/07/22 02:10:29;;;;;;;27.53;22.53;;;;;;;;;;5015738;28;20262;-76
2023/07/22 02:12:57;;;;;;;31.57;23.13;;;;;;;;;;5027180;28;20229;-76
2023/07/22 02:15:24;;;;;;;26.27;22.53;;;;;;;;;;5022625;28;20236;-77
2023/07/22 02:17:50;;;;;;;26.87;22.60;;;;;;;;;;5025449;28;20223;-78
2023/07/22 02:20:17;;;;;;;25.63;21.73;;;;;;;;;;5032571;28;20292;-77
2023/07/22 02:22:45;;;;;;;26.77;22.53;;;;;;;;;;5015284;28;20692;-78
2023/07/22 02:25:11;;;;;;;23.90;21.30;;;;;;;;;;5031668;28;20223;-78
2023/07/22 02:27:40;;;;;;;24.50;21.07;;;;;;;;;;5031062;28;20638;-77
2023/07/22 02:30:10;;;;;;;28.37;22.17;;;;;;;;;;5011219;28;20212;-77
2023/07/22 02:32:40;;;;;;;34.10;22.13;;;;;;;;;;5026209;28;20660;-78
2023/07/22 02:35:10;;;;;;;28.43;22.43;;;;;;;;;;5015381;28;20250;-78
2023/07/22 02:37:37;;;;;;;32.40;21.93;;;;;;;;;;5045495;28;20226;-78
2023/07/22 02:40:07;;;;;;;27.37;21.80;;;;;;;;;;5032257;28;20321;-77
2023/07/22 02:42:35;;;;;;;34.87;22.33;;;;;;;;;;5043234;28;20223;-77
2023/07/22 02:45:04;;;;;;;26.10;21.23;;;;;;;;;;5042929;28;20231;-78
2023/07/22 02:47:32;;;;;;;27.63;20.73;;;;;;;;;;5010323;28;20223;-80
2023/07/22 02:50:00;;;;;;;29.40;22.17;;;;;;;;;;5042089;28;20223;-78
2023/07/22 02:52:26;;;;;;;28.47;21.30;;;;;;;;;;5011185;28;20891;-79
2023/07/22 02:55:10;;;;;;;23.93;20.03;;;;;;;;;;4998408;28;20314;-77
2023/07/22 02:57:37;;;;;;;25.17;20.73;;;;;;;;;;5040656;28;20357;-78
2023/07/22 03:00:07;;;;;;;24.83;19.80;;;;;;;;;;5025370;28;20252;-77
2023/07/22 03:02:33;;;;;;;25.13;20.17;;;;;;;;;;5007045;28;20222;-79
2023/07/22 03:04:59;;;;;;;23.23;19.73;;;;;;;;;;4999099;28;20223;-77
2023/07/22 03:07:27;;;;;;;24.17;20.20;;;;;;;;;;5030001;28;20711;-77
2023/07/22 03:09:53;;;;;;;27.83;19.80;;;;;;;;;;5031938;28;20264;-77
2023/07/22 03:12:21;;;;;;;27.40;20.63;;;;;;;;;;5015630;28;20245;-77
2023/07/22 03:14:46;;;;;;;25.40;19.70;;;;;;;;;;5016849;28;20220;-77
2023/07/22 03:17:16;;;;;;;24.23;19.43;;;;;;;;;;5040985;28;21066;-77
2023/07/22 03:19:44;;;;;;;28.10;19.87;;;;;;;;;;5045602;28;20226;-77
2023/07/22 03:22:13;;;;;;;25.37;20.53;;;;;;;;;;5028697;28;20532;-79
2023/07/22 03:24:38;;;;;;;23.63;20.20;;;;;;;;;;5007709;28;20227;-77
2023/07/22 03:27:04;;;;;;;22.30;19.80;;;;;;;;;;5026250;28;20231;-76
2023/07/22 03:29:34;;;;;;;28.47;20.07;;;;;;;;;;5010623;28;20461;-78
2023/07/22 03:32:00;;;;;;;25.10;20.03;;;;;;;;;;5028850;28;20350;-77
2023/07/22 03:34:27;;;;;;;26.47;19.37;;;;;;;;;;5030051;28;20223;-78
2023/07/22 03:36:54;;;;;;;21.93;18.13;;;;;;;;;;5008353;28;20589;-75
2023/07/22 03:39:25;;;;;;;24.33;19.77;;;;;;;;;;5031706;28;20239;-80
2023/07/22 03:41:52;;;;;;;24.37;19.70;;;;;;;;;;5011028;28;20246;-77
2023/07/22 03:44:20;;;;;;;24.60;19.63;;;;;;;;;;5009150;28;20744;-78
2023/07/22 03:46:46;;;;;;;24.73;19.93;;;;;;;;;;5007184;28;20220;-78
2023/07/22 03:49:11;;;;;;;27.77;19.70;;;;;;;;;;5013689;28;20242;-78
2023/07/22 03:51:37;;;;;;;22.33;18.97;;;;;;;;;;5028942;28;20235;-77
2023/07/22 03:54:02;;;;;;;22.93;19.17;;;;;;;;;;5024648;28;20223;-78
2023/07/22 03:56:28;;;;;;;23.67;17.97;;;;;;;;;;5030601;28;20223;-79
2023/07/22 03:58:55;;;;;;;21.10;17.77;;;;;;;;;;5015844;28;20207;-78
2023/07/22 04:05:08;;;;;;;24.77;18.70;;;;;;;;;;5041391;28;20625;-79
2023/07/22 04:07:34;;;;;;;24.20;18.47;;;;;;;;;;5014811;28;20262;-78
2023/07/22 04:10:02;;;;;;;22.27;16.63;;;;;;;;;;4999469;28;20230;-78
2023/07/22 04:12:28;;;;;;;25.30;17.17;;;;;;;;;;5013945;28;20582;-78
2023/07/22 04:14:56;;;;;;;21.97;17.63;;;;;;;;;;5031421;28;20293;-77
2023/07/22 04:17:25;;;;;;;22.97;16.93;;;;;;;;;;5030485;28;20223;-79
2023/07/22 04:19:51;;;;;;;22.43;16.37;;;;;;;;;;5023376;28;20211;-78
2023/07/22 04:22:17;;;;;;;19.23;16.63;;;;;;;;;;5030231;28;20686;-80
2023/07/22 04:24:43;;;;;;;19.10;16.27;;;;;;;;;;5021781;28;20260;-78
2023/07/22 04:27:08;;;;;;;22.57;15.97;;;;;;;;;;5018643;28;20196;-78
2023/07/22 04:29:35;;;;;;;19.07;15.00;;;;;;;;;;5020136;28;20212;-77
2023/07/22 04:32:14;;;;;;;26.30;16.03;;;;;;;;;;5028357;28;20223;-78
2023/07/22 04:34:39;;;;;;;17.13;14.70;;;;;;;;;;5031297;28;20607;-77
2023/07/22 04:37:05;;;;;;;17.57;15.00;;;;;;;;;;5044655;28;20224;-78
2023/07/22 04:39:34;;;;;;;19.97;14.90;;;;;;;;;;5026969;28;20647;-78
2023/07/22 04:41:59;;;;;;;17.77;15.33;;;;;;;;;;5006725;28;20603;-79
2023/07/22 04:44:25;;;;;;;22.67;14.40;;;;;;;;;;5029472;28;20235;-79
2023/07/22 04:46:50;;;;;;;19.40;14.83;;;;;;;;;;5026796;28;20614;-79
2023/07/22 04:49:17;;;;;;;18.63;13.10;;;;;;;;;;5039837;28;20216;-79
2023/07/22 04:51:45;;;;;;;16.97;13.23;;;;;;;;;;5029779;28;20231;-80
2023/07/22 04:54:14;;;;;;;19.17;13.10;;;;;;;;;;5026532;28;20216;-79
2023/07/22 04:56:41;;;;;;;16.40;12.83;;;;;;;;;;5028223;28;20583;-80
2023/07/22 04:59:06;;;;;;;15.50;12.37;;;;;;;;;;5028803;28;20665;-79
2023/07/22 05:01:35;;;;;;;14.63;11.80;;;;;;;;;;5028185;28;20234;-77
2023/07/22 05:04:01;;;;;;;14.57;11.37;;;;;;;;;;5030457;28;20700;-80
2023/07/22 05:06:30;;;;;;;13.57;11.50;;;;;;;;;;5028030;28;20230;-79
2023/07/22 05:08:55;;;;;;;12.37;10.33;;;;;;;;;;5026191;28;20239;-79
2023/07/22 05:11:23;;;;;;;16.13;11.27;;;;;;;;;;4996557;28;20778;-78
2023/07/22 05:13:51;;;;;;;16.03;11.40;;;;;;;;;;5029966;28;20207;-80
2023/07/22 05:16:21;;;;;;;14.70;10.90;;;;;;;;;;5029035;28;20235;-81
2023/07/22 05:18:46;;;;;;;16.17;10.47;;;;;;;;;;5030365;28;20219;-80
2023/07/22 05:21:12;;;;;;;15.33;10.13;;;;;;;;;;5012300;28;20238;-80
2023/07/22 05:23:37;;;;;;;15.37;9.87;;;;;;;;;;5029695;28;20211;-79
2023/07/22 05:26:03;;;;;;;14.17;10.10;;;;;;;;;;5040787;28;20220;-79
2023/07/22 05:28:29;;;;;;;23.77;9.87;;;;;;;;;;4988660;28;20227;-79
2023/07/22 05:30:55;;;;;;;12.90;9.97;;;;;;;;;;5005926;28;20284;-79
2023/07/22 05:33:21;;;;;;;12.47;9.70;;;;;;;;;;4990188;28;20230;-80
2023/07/22 05:35:46;;;;;;;13.13;9.80;;;;;;;;;;5042839;28;20593;-79
2023/07/22 05:38:15;;;;;;;10.57;9.00;;;;;;;;;;5025367;28;20221;-80
2023/07/22 05:40:43;;;;;;;15.43;9.53;;;;;;;;;;5011576;28;20227;-79
2023/07/22 05:43:12;;;;;;;11.47;8.63;;;;;;;;;;5018456;28;20304;-77
2023/07/22 05:45:43;;;;;;;10.63;9.10;;;;;;;;;;5045811;28;20352;-78
2023/07/22 05:48:17;;;;;;;10.27;9.03;;;;;;;;;;5032041;28;20246;-81
2023/07/22 05:50:42;;;;;;;10.10;9.00;;;;;;;;;;5018944;28;20235;-78
2023/07/22 05:53:08;;;;;;;14.93;9.00;;;;;;;;;;5046535;28;20216;-80
2023/07/22 05:55:33;;;;;;;10.80;8.30;;;;;;;;;;5020644;28;20223;-80
2023/07/22 05:58:05;;;;;;;10.63;8.60;;;;;;;;;;5021564;28;20223;-79
2023/07/22 06:00:37;;;;;;;11.13;8.00;;;;;;;;;;5031370;28;20228;-77
2023/07/22 06:03:04;;;;;;;15.83;8.90;;;;;;;;;;5039032;28;20227;-79
2023/07/22 06:05:32;;;;;;;11.70;8.47;;;;;;;;;;5017082;28;20259;-80
2023/07/22 06:08:00;;;;;;;10.97;7.87;;;;;;;;;;5002108;28;20538;-79
2023/07/22 06:10:25;;;;;;;13.37;8.20;;;;;;;;;;5030517;28;20231;-81
2023/07/22 06:12:51;;;;;;;10.33;7.63;;;;;;;;;;5023344;28;20219;-80
2023/07/22 06:15:17;;;;;;;9.00;7.50;;;;;;;;;;5024345;28;20215;-79
2023/07/22 06:17:44;;;;;;;8.33;7.00;;;;;;;;;;5033798;28;20252;-80
2023/07/22 06:20:10;;;;;;;8.23;7.23;;;;;;;;;;5034256;28;20228;-78
2023/07/22 06:22:40;;;;;;;7.97;6.30;;;;;;;;;;4998875;28;20231;-79
2023/07/22 06:25:06;;;;;;;7.22;6.30;;;;;;;;;;4996333;28;20242;-79
2023/07/22 06:27:33;;;;;;;12.45;7.28;;;;;;;;;;4985780;28;20228;-78
2023/07/22 06:29:59;;;;;;;8.23;6.03;;;;;;;;;;5024730;28;20846;-80
2023/07/22 06:32:24;;;;;;;10.63;6.28;;;;;;;;;;5021997;28;20230;-82
2023/07/22 06:34:50;;;;;;;7.15;5.43;;;;;;;;;;5041192;28;20258;-80
2023/07/22 06:37:16;;;;;;;8.40;5.97;;;;;;;;;;5034335;28;20259;-80
2023/07/22 06:39:41;;;;;;;9.55;6.18;;;;;;;;;;4998057;28;20215;-79
2023/07/22 06:42:09;;;;;;;9.50;6.37;;;;;;;;;;5030549;28;20239;-80
2023/07/22 06:44:36;;;;;;;7.43;6.32;;;;;;;;;;5015969;28;20235;-81
2023/07/22 06:47:02;;;;;;;7.47;6.00;;;;;;;;;;5012140;28;20238;-78
2023/07/22 06:49:30;;;;;;;7.67;6.07;;;;;;;;;;5024459;28;20231;-80
2023/07/22 06:52:02;;;;;;;10.25;6.03;;;;;;;;;;5021280;28;20251;-80
2023/07/22 06:54:31;;;;;;;7.85;5.78;;;;;;;;;;5006623;28;20227;-78
2023/07/22 06:56:56;;;;;;;6.63;5.88;;;;;;;;;;5050523;28;20222;-80
2023/07/22 06:59:22;;;;;;;7.07;5.18;;;;;;;;;;5020709;28;20227;-79
2023/07/22 07:01:47;;;;;;;9.30;5.55;;;;;;;;;;5027290;28;20251;-79
2023/07/22 07:04:16;;;;;;;5.93;5.38;;;;;;;;;;5017481;28;20251;-79
2023/07/22 07:06:41;;;;;;;6.63;5.07;;;;;;;;;;5022581;28;20254;-78
2023/07/22 07:09:10;;;;;;;7.22;5.00;;;;;;;;;;5016020;28;20216;-77
2023/07/22 07:11:35;;;;;;;5.93;5.30;;;;;;;;;;4992906;28;20369;-78
2023/07/22 07:14:01;;;;;;;6.72;5.13;;;;;;;;;;5048656;28;20212;-78
2023/07/22 07:16:28;;;;;;;6.03;4.78;;;;;;;;;;5015092;28;20227;-79
2023/07/22 07:18:54;;;;;;;5.25;4.28;;;;;;;;;;5013731;28;20234;-79
2023/07/22 07:21:20;;;;;;;5.00;4.07;;;;;;;;;;5012795;28;20259;-79
2023/07/22 07:23:48;;;;;;;5.32;4.20;;;;;;;;;;5029518;28;20254;-76
2023/07/22 07:26:16;;;;;;;4.78;3.63;;;;;;;;;;5031672;28;20335;-79
2023/07/22 07:28:41;;;;;;;5.97;3.55;;;;;;;;;;5026731;28;20259;-77
2023/07/22 07:31:07;;;;;;;5.10;3.63;;;;;;;;;;5015294;28;20232;-78
2023/07/22 07:33:33;;;;;;;3.85;3.47;;;;;;;;;;5025829;28;20570;-79
2023/07/22 07:35:58;;;;;;;3.72;2.90;;;;;;;;;;5031178;28;20212;-78
2023/07/22 07:38:28;;;;;;;3.05;2.63;;;;;;;;;;5036937;28;20665;-77
2023/07/22 07:41:03;;;;;;;4.03;3.00;;;;;;;;;;5038888;28;20227;-77
2023/07/22 07:43:31;;;;;;;3.05;2.75;;;;;;;;;;5041674;28;20216;-79
2023/07/22 07:46:21;;;;;;;4.72;2.60;;;;;;;;;;5014838;28;20225;-78
2023/07/22 07:48:49;;;;;;;3.45;2.75;;;;;;;;;;5035979;28;20278;-81
2023/07/22 07:51:15;;;;;;;3.55;2.15;;;;;;;;;;5023808;28;20227;-78
2023/07/22 07:53:41;;;;;;;3.72;2.20;;;;;;;;;;4999386;28;20231;-80
2023/07/22 07:56:09;;;;;;;3.47;2.40;;;;;;;;;;5040505;28;20239;-78
2023/07/22 07:58:37;;;;;;;2.35;2.08;;;;;;;;;;5026228;28;20251;-80
2023/07/22 08:01:03;;;;;;;2.20;2.00;;;;;;;;;;5025360;28;20219;-79
2023/07/22 08:03:28;;;;;;;3.20;2.45;;;;;;;;;;5013156;28;20607;-80
2023/07/22 08:05:54;;;;;;;3.47;2.30;;;;;;;;;;5022890;28;20224;-78
2023/07/22 08:08:20;;;;;;;2.40;1.92;;;;;;;;;;5039942;28;20234;-79
2023/07/22 08:10:48;;;;;;;3.25;2.25;;;;;;;;;;5007470;28;20228;-78
2023/07/22 08:13:14;;;;;;;3.55;2.05;;;;;;;;;;5005499;28;20216;-77
2023/07/22 08:15:42;;;;;;;2.30;1.92;;;;;;;;;;5025397;28;20216;-77
2023/07/22 08:18:08;;;;;;;3.65;2.00;;;;;;;;;;5013672;28;20254;-77
2023/07/22 08:20:36;;;;;;;2.13;1.98;;;;;;;;;;5012745;28;20217;-79
2023/07/22 08:23:01;;;;;;;2.80;2.00;;;;;;;;;;4997313;28;20251;-82
2023/07/22 08:25:29;;;;;;;3.22;1.95;;;;;;;;;;5012878;28;20318;-79
2023/07/22 08:27:54;;;;;;;5.05;1.90;;;;;;;;;;5031357;28;20224;-78
2023/07/22 08:30:23;;;;;;;5.53;1.80;;;;;;;;;;5024051;28;20226;-78
2023/07/22 08:32:48;;;;;;;3.97;2.08;;;;;;;;;;5030912;28;20224;-78
2023/07/22 08:35:17;;;;;;;2.53;1.88;;;;;;;;;;5041857;28;20218;-78
2023/07/22 08:37:43;;;;;;;3.92;1.95;;;;;;;;;;5023711;28;20219;-79
2023/07/22 08:40:09;;;;;;;2.38;1.80;;;;;;;;;;5029631;28;20215;-78
2023/07/22 08:42:37;;;;;;;2.63;1.90;;;;;;;;;;4998328;28;20250;-78
2023/07/22 08:45:05;;;;;;;2.83;1.85;;;;;;;;;;4983924;28;20224;-78
2023/07/22 08:47:35;;;;;;;4.57;2.00;;;;;;;;;;5025464;28;20251;-79
2023/07/22 08:50:01;;;;;;;3.08;2.00;;;;;;;;;;5016013;28;20901;-79
2023/07/22 08:52:33;;;;;;;1.88;1.77;;;;;;;;;;5015670;28;20302;-80
2023/07/22 08:54:58;;;;;;;2.67;1.73;;;;;;;;;;5011983;28;20212;-79
2023/07/22 08:57:24;;;;;;;2.20;1.77;;;;;;;;;;5008710;28;20222;-77
2023/07/22 08:59:49;;;;;;;2.33;1.70;;;;;;;;;;5011054;28;20220;-80
2023/07/22 09:02:19;;;;;;;3.60;2.13;;;;;;;;;;5015054;28;20212;-80
2023/07/22 09:04:45;;;;;;;5.03;1.58;;;;;;;;;;5015459;28;20239;-79
2023/07/22 09:07:16;;;;;;;1.95;1.63;;;;;;;;;;5010618;28;20216;-79
2023/07/22 09:09:41;;;;;;;1.67;1.58;;;;;;;;;;5014035;28;20223;-80
2023/07/22 09:12:11;;;;;;;1.45;1.30;;;;;;;;;;5025123;28;20219;-81
2023/07/22 09:14:37;;;;;;;2.60;1.70;;;;;;;;;;5012265;28;20228;-80
2023/07/22 09:17:05;;;;;;;2.88;1.45;;;;;;;;;;4989791;28;20218;-78
2023/07/22 09:19:31;;;;;;;1.75;1.65;;;;;;;;;;5006814;28;20232;-78
2023/07/22 09:21:59;;;;;;;2.10;1.45;;;;;;;;;;5012203;28;20227;-76
2023/07/22 09:24:30;;;;;;;2.83;1.60;;;;;;;;;;4991445;28;20224;-79
2023/07/22 09:26:56;;;;;;;5.00;2.00;;;;;;;;;;5030175;28;20220;-80
2023/07/22 09:29:36;;;;;;;1.90;1.63;;;;;;;;;;5025363;28;20219;-80
2023/07/22 09:32:03;;;;;;;2.05;1.85;;;;;;;;;;5022908;28;20223;-80
2023/07/22 09:34:31;;;;;;;2.22;1.90;;;;;;;;;;5030335;28;20242;-79
2023/07/22 09:37:03;;;;;;;3.38;2.10;;;;;;;;;;5046963;28;20315;-79
2023/07/22 09:39:29;;;;;;;3.28;2.25;;;;;;;;;;5021035;28;20306;-79
2023/07/22 09:41:55;;;;;;;5.70;2.50;;;;;;;;;;5031775;28;20635;-82
2023/07/22 09:44:21;;;;;;;2.20;2.00;;;;;;;;;;5022344;28;20236;-80
2023/07/22 09:46:50;;;;;;;2.40;2.20;;;;;;;;;;5022357;28;20220;-79
2023/07/22 09:49:18;;;;;;;4.65;2.45;;;;;;;;;;4996554;28;20219;-79
2023/07/22 09:51:44;;;;;;;3.63;2.67;;;;;;;;;;5031331;28;20227;-79
2023/07/22 09:54:12;;;;;;;2.65;2.22;;;;;;;;;;4990595;28;20342;-79
2023/07/22 09:56:48;;;;;;;4.50;2.42;;;;;;;;;;5015216;28;20228;-79
2023/07/22 09:59:14;;;;;;;3.22;2.70;;;;;;;;;;5039645;28;20216;-80
2023/07/22 10:01:46;;;;;;;3.25;2.95;;;;;;;;;;4998802;28;20220;-78
2023/07/22 10:04:15;;;;;;;4.00;3.22;;;;;;;;;;5015624;28;20224;-78
2023/07/22 10:06:41;;;;;;;3.80;3.00;;;;;;;;;;5037829;28;20235;-79
2023/07/22 10:09:07;;;;;;;4.60;3.30;;;;;;;;;;5013278;28;20704;-78
2023/07/22 10:11:33;;;;;;;3.70;3.40;;;;;;;;;;5015963;28;20234;-77
2023/07/22 10:14:02;;;;;;;6.45;3.65;;;;;;;;;;5030354;28;20212;-79
2023/07/22 10:16:30;;;;;;;4.95;3.10;;;;;;;;;;4997772;28;20226;-76
2023/07/22 10:19:01;;;;;;;7.00;3.78;;;;;;;;;;5014712;28;20293;-76
2023/07/22 10:21:29;;;;;;;3.97;3.60;;;;;;;;;;5016467;28;20680;-79
2023/07/22 10:23:54;;;;;;;4.28;3.88;;;;;;;;;;5017318;28;20227;-80
2023/07/22 10:26:20;;;;;;;4.78;4.05;;;;;;;;;;5021168;28;20277;-78
2023/07/22 10:28:47;;;;;;;4.45;3.63;;;;;;;;;;5034695;28;20219;-77
2023/07/22 10:31:18;;;;;;;4.78;4.38;;;;;;;;;;5007846;28;20230;-77
2023/07/22 10:33:47;;;;;;;5.32;4.05;;;;;;;;;;5016663;28;20318;-78
2023/07/22 10:36:19;;;;;;;5.07;4.20;;;;;;;;;;5009598;28;20211;-78
2023/07/22 10:38:44;;;;;;;4.28;3.88;;;;;;;;;;5041175;28;20235;-78
2023/07/22 10:41:14;;;;;;;4.55;4.15;;;;;;;;;;4989573;28;20216;-80
2023/07/22 10:43:39;;;;;;;4.43;3.97;;;;;;;;;;5022242;28;20215;-78
2023/07/22 10:46:17;;;;;;;8.75;4.47;;;;;;;;;;5007163;28;20233;-78
2023/07/22 10:48:45;;;;;;;8.23;4.07;;;;;;;;;;5044837;28;20223;-79
2023/07/22 10:51:14;;;;;;;4.47;4.07;;;;;;;;;;5002120;28;20227;-79
2023/07/22 10:53:42;;;;;;;4.45;4.05;;;;;;;;;;5018048;28;20705;-77
2023/07/22 10:56:14;;;;;;;4.65;4.18;;;;;;;;;;5035515;28;20269;-78
2023/07/22 10:58:46;;;;;;;5.07;4.32;;;;;;;;;;5021450;28;20230;-79
2023/07/22 11:01:30;;;;;;;6.13;4.28;;;;;;;;;;5046576;28;20232;-79
2023/07/22 11:04:06;;;;;;;6.00;4.70;;;;;;;;;;5046363;28;20285;-80
2023/07/22 11:06:32;;;;;;;6.97;4.50;;;;;;;;;;5034383;28;20231;-77
2023/07/22 11:09:00;;;;;;;5.20;4.70;;;;;;;;;;5003160;28;20247;-78
2023/07/22 11:12:03;;;;;;;5.78;4.72;;;;;;;;;;5019233;28;20227;-76
2023/07/22 11:14:41;;;;;;;5.30;4.80;;;;;;;;;;5020215;28;20223;-77
2023/07/22 11:17:08;;;;;;;5.75;4.85;;;;;;;;;;5029520;28;20226;-79
2023/07/22 11:19:33;;;;;;;7.60;4.88;;;;;;;;;;5029591;28;20590;-78
2023/07/22 11:21:59;;;;;;;5.30;4.80;;;;;;;;;;5025548;28;20227;-78
2023/07/22 11:24:27;;;;;;;8.20;4.85;;;;;;;;;;4996554;28;20288;-81
2023/07/22 11:26:57;;;;;;;5.18;4.22;;;;;;;;;;5032910;28;20223;-78
2023/07/22 11:29:25;;;;;;;6.32;5.30;;;;;;;;;;5031280;28;20273;-78
2023/07/22 11:31:51;;;;;;;8.52;5.05;;;;;;;;;;4997052;28;20601;-79
2023/07/22 11:34:23;;;;;;;5.03;4.53;;;;;;;;;;5023037;28;20269;-81
2023/07/22 11:36:50;;;;;;;8.20;4.82;;;;;;;;;;4997979;28;20223;-78
2023/07/22 11:39:17;;;;;;;4.78;4.22;;;;;;;;;;4990813;28;20230;-80
2023/07/22 11:41:43;;;;;;;6.05;4.70;;;;;;;;;;5027023;28;20308;-77
2023/07/22 11:44:09;;;;;;;4.80;4.32;;;;;;;;;;5024609;28;20239;-79
2023/07/22 11:47:08;;;;;;;4.70;4.30;;;;;;;;;;4995011;28;20216;-78
2023/07/22 11:49:41;;;;;;;4.63;4.22;;;;;;;;;;5019860;28;20703;-79
2023/07/22 11:52:10;;;;;;;5.65;4.32;;;;;;;;;;5013223;28;20224;-78
2023/07/22 11:54:39;;;;;;;5.40;4.40;;;;;;;;;;5030267;28;20215;-78
2023/07/22 11:57:21;;;;;;;5.28;4.78;;;;;;;;;;5039315;28;20227;-81
2023/07/22 11:59:50;;;;;;;7.13;4.70;;;;;;;;;;5040243;28;20223;-78
2023/07/22 12:02:17;;;;;;;4.95;4.25;;;;;;;;;;5014193;28;20709;-81
2023/07/22 12:04:44;;;;;;;4.80;4.40;;;;;;;;;;5001123;28;20220;-79
2023/07/22 12:07:30;;;;;;;4.35;3.95;;;;;;;;;;5024524;28;20267;-81
2023/07/22 12:09:57;;;;;;;5.55;4.38;;;;;;;;;;5045910;28;20723;-80
2023/07/22 12:12:56;;;;;;;4.93;4.50;;;;;;;;;;5013005;28;20244;-82
2023/07/22 12:15:23;;;;;;;4.13;3.75;;;;;;;;;;5036867;28;20231;-81
2023/07/22 12:17:58;;;;;;;4.53;3.60;;;;;;;;;;5036839;28;20315;-80
2023/07/22 12:20:28;;;;;;;3.50;3.20;;;;;;;;;;5033486;28;20233;-82
2023/07/22 12:22:54;;;;;;;5.95;3.55;;;;;;;;;;5038773;28;20215;-80
2023/07/22 12:25:22;;;;;;;3.58;3.28;;;;;;;;;;5014401;28;20244;-81
2023/07/22 12:27:48;;;;;;;6.15;3.28;;;;;;;;;;5024308;28;20215;-80
2023/07/22 12:30:13;;;;;;;4.95;3.08;;;;;;;;;;5028633;28;20312;-80
2023/07/22 12:32:39;;;;;;;3.90;3.13;;;;;;;;;;5026719;28;20219;-78
2023/07/22 12:35:05;;;;;;;4.20;3.25;;;;;;;;;;5036583;28;20224;-81
2023/07/22 12:37:33;;;;;;;3.55;3.25;;;;;;;;;;5035475;28;20224;-80
2023/07/22 12:40:01;;;;;;;5.03;3.22;;;;;;;;;;5019156;28;20222;-81
2023/07/22 12:42:27;;;;;;;3.60;3.30;;;;;;;;;;5015341;28;20214;-80
2023/07/22 12:44:52;;;;;;;2.83;2.63;;;;;;;;;;5016714;28;20232;-80
2023/07/22 12:47:20;;;;;;;3.97;2.97;;;;;;;;;;5003379;28;20218;-82
2023/07/22 12:49:48;;;;;;;3.53;2.58;;;;;;;;;;5021946;28;20211;-81
2023/07/22 12:52:14;;;;;;;2.72;2.50;;;;;;;;;;5032249;28;20528;-81
2023/07/22 12:54:45;;;;;;;2.55;2.35;;;;;;;;;;5029217;28;20223;-81
2023/07/22 12:57:16;;;;;;;4.53;2.90;;;;;;;;;;5036587;28;20299;-80
2023/07/22 12:59:41;;;;;;;2.65;2.28;;;;;;;;;;5043303;28;20225;-82
2023/07/22 13:02:07;;;;;;;3.45;2.70;;;;;;;;;;5022123;28;20215;-80
2023/07/22 13:04:43;;;;;;;3.30;2.90;;;;;;;;;;5034308;28;20235;-80
2023/07/22 13:07:14;;;;;;;3.47;3.17;;;;;;;;;;5031117;28;20219;-82
2023/07/22 13:09:40;;;;;;;3.50;3.20;;;;;;;;;;5026962;28;20234;-83
2023/07/22 13:12:06;;;;;;;2.83;2.63;;;;;;;;;;5038151;28;20220;-81
2023/07/22 13:14:31;;;;;;;3.60;3.30;;;;;;;;;;5019602;28;20230;-81
2023/07/22 13:16:57;;;;;;;3.53;3.22;;;;;;;;;;5034578;28;20226;-81
2023/07/22 13:19:22;;;;;;;3.78;3.47;;;;;;;;;;5051196;28;20235;-81
2023/07/22 13:21:53;;;;;;;5.30;3.65;;;;;;;;;;5008939;28;20212;-80
2023/07/22 13:24:21;;;;;;;4.40;3.60;;;;;;;;;;5012551;28;20358;-81
2023/07/22 13:26:47;;;;;;;3.75;3.22;;;;;;;;;;5025289;28;20246;-80
2023/07/22 13:29:15;;;;;;;3.67;3.35;;;;;;;;;;5029368;28;20211;-83
2023/07/22 13:31:40;;;;;;;4.18;3.80;;;;;;;;;;5017235;28;20231;-80
2023/07/22 13:34:06;;;;;;;4.03;3.47;;;;;;;;;;5001647;28;20232;-82
2023/07/22 13:36:31;;;;;;;4.68;4.07;;;;;;;;;;5043712;28;20695;-81
2023/07/22 13:38:59;;;;;;;4.45;3.90;;;;;;;;;;5022440;28;20222;-81
2023/07/22 13:41:29;;;;;;;4.20;3.70;;;;;;;;;;5016801;28;20283;-79
2023/07/22 13:43:57;;;;;;;5.78;4.10;;;;;;;;;;5018635;28;20265;-80
2023/07/22 13:46:22;;;;;;;5.30;4.57;;;;;;;;;;5032241;28;20243;-81
2023/07/22 13:48:48;;;;;;;4.95;4.55;;;;;;;;;;5031485;28;20226;-81
2023/07/22 13:51:16;;;;;;;5.25;4.38;;;;;;;;;;5020551;28;20215;-81
2023/07/22 13:53:41;;;;;;;5.03;4.53;;;;;;;;;;5020066;28;20220;-80
2023/07/22 13:56:07;;;;;;;6.15;5.20;;;;;;;;;;5039918;28;20223;-80
2023/07/22 13:58:33;;;;;;;7.15;5.43;;;;;;;;;;5054239;28;20224;-80
2023/07/22 14:01:00;;;;;;;6.18;5.57;;;;;;;;;;5037935;28;20227;-82
2023/07/22 14:03:26;;;;;;;6.07;5.45;;;;;;;;;;5021467;28;20219;-80
2023/07/22 14:05:51;;;;;;;5.93;5.43;;;;;;;;;;5028595;28;20226;-81
2023/07/22 14:08:17;;;;;;;6.22;5.63;;;;;;;;;;5009840;28;20311;-80
2023/07/22 14:10:42;;;;;;;6.00;5.40;;;;;;;;;;5023195;28;20223;-82
2023/07/22 14:13:08;;;;;;;6.22;5.40;;;;;;;;;;5035213;28;20754;-82
2023/07/22 14:15:36;;;;;;;5.95;5.43;;;;;;;;;;5064583;28;21040;-81
2023/07/22 14:18:04;;;;;;;5.75;5.25;;;;;;;;;;5000604;28;20220;-81
2023/07/22 14:20:30;;;;;;;6.43;5.82;;;;;;;;;;5013085;28;20255;-81
2023/07/22 14:22:59;;;;;;;6.88;5.95;;;;;;;;;;5048738;28;20216;-82
2023/07/22 14:25:27;;;;;;;8.57;5.25;;;;;;;;;;5041463;28;21073;-81
2023/07/22 14:27:53;;;;;;;7.07;6.47;;;;;;;;;;5048326;28;20253;-80
2023/07/22 14:30:18;;;;;;;6.18;5.60;;;;;;;;;;5029396;28;20220;-81
2023/07/22 14:32:46;;;;;;;7.00;6.32;;;;;;;;;;5030669;28;20219;-81
2023/07/22 14:35:12;;;;;;;6.68;5.97;;;;;;;;;;5030713;28;20275;-81
2023/07/22 14:37:38;;;;;;;6.85;6.15;;;;;;;;;;4992897;28;20247;-81
2023/07/22 14:40:08;;;;;;;5.97;5.47;;;;;;;;;;5024903;28;20224;-81